アナディリ の空港の天気 - METARとTAF

アナディリ・ウゴルヌイ空港 ( UHMA / DYR ) - ロシア アナディリ
飛行場実況気象(Metar)
観測時間01/19 08:00 MAGT (01/18 21:00 UTC)
風向・風速北 7m/s
視程10km以上
天気現象
なし
気温-32℃
湿度68%
気圧1022hPa
METARUHMA 182100Z 35007MPS CAVOK M32/M36 Q1022 R01/70//50 NOSIG RMK END R01/34006MPS QFE763/1017
過去の天気等 Google飛行場航空写真 Wunderground天気予報

過去48時間のMETAR

飛行場予報(TAF)
発表時間: 1/19 06:52 MAGT (1/18 19:52 UTC)
予報対象時間: 19日8時 MAGT ~ 20日8時 MAGT
風向・風速北 6m/s
視程10km以上
全天の4割程度の雲 雲底高度 1,010m
19日8時 MAGT ~ 20日8時 MAGT に一時的に
風向・風速北西 8m/s
視程4,000m
天気現象弱い雪 もや
全天の4割程度の雲 雲底高度 210m
全天の8割程度の雲 雲底高度 760m
TAF UHMA 181952Z 1821/1921 01006MPS 9999 SCT033
TEMPO 1821/1921 31008MPS 4000 -SN BR SCT007 BKN025